Time;durP1;ratioP1;P1;durP2;ratioP2;P2;SDS_P1;SDS_P2;PMS_P1;PMS_P2;Temp;Humidity;BMP_temperature;BMP_pressure;BME280_temperature;BME280_humidity;BME280_pressure;Samples;Min_cycle;Max_cycle;Signal;HPM_P1;HPM_P2
2021/04/23 00:00:55;;;;;;;0.30;0.30;;;4.90;67.50;;;7.52;55.87;102846.41;5009852;28;97863;-67
2021/04/23 00:03:31;;;;;;;0.20;0.20;;;4.90;67.40;;;7.46;56.03;102848.16;5003201;28;98010;-66
2021/04/23 00:06:07;;;;;;;0.75;0.68;;;4.80;67.40;;;7.43;56.28;102834.44;5006737;28;96902;-66
2021/04/23 00:08:36;;;;;;;0.55;0.55;;;4.80;67.50;;;7.37;56.24;102838.88;4985125;28;97833;-66
2021/04/23 00:11:09;;;;;;;0.65;0.65;;;4.80;67.50;;;7.41;56.02;102833.88;5022032;28;97657;-66
2021/04/23 00:13:40;;;;;;;2.00;1.27;;;4.70;67.50;;;7.33;56.03;102836.88;5002923;28;98158;-66
2021/04/23 00:16:10;;;;;;;1.08;0.52;;;4.70;67.50;;;7.28;56.15;102836.75;5002942;28;97630;-67
2021/04/23 00:18:40;;;;;;;3.65;1.05;;;4.70;68.10;;;7.24;55.69;102838.25;5005194;28;98143;-67
2021/04/23 00:21:12;;;;;;;1.65;1.30;;;4.70;67.50;;;7.22;55.84;102840.34;5005831;28;97629;-66
2021/04/23 00:23:40;;;;;;;0.20;0.20;;;4.60;67.40;;;7.20;56.12;102837.06;5007533;28;96876;-67
2021/04/23 00:26:09;;;;;;;0.43;0.43;;;4.60;67.50;;;7.20;55.11;102843.22;5008721;28;96911;-68
2021/04/23 00:28:38;;;;;;;0.45;0.45;;;4.60;67.50;;;7.15;55.25;102845.75;4984798;28;97466;-67
2021/04/23 00:31:09;;;;;;;8.05;1.25;;;4.50;67.50;;;7.16;55.37;102842.03;5007289;28;97687;-66
2021/04/23 00:33:38;;;;;;;0.95;0.93;;;4.50;67.60;;;7.15;55.82;102836.94;5005099;28;97189;-66
2021/04/23 00:36:08;;;;;;;0.65;0.65;;;4.50;67.60;;;7.09;55.61;102837.84;5005096;28;97130;-67
2021/04/23 00:38:39;;;;;;;7.13;1.48;;;4.50;67.60;;;7.04;56.10;102838.50;5010049;28;97990;-66
2021/04/23 00:41:12;;;;;;;0.17;0.17;;;4.50;67.60;;;7.01;56.00;102848.84;5021071;28;96847;-66
2021/04/23 00:43:55;;;;;;;0.20;0.20;;;4.40;67.50;;;7.00;56.46;102848.00;5025795;28;96845;-66
2021/04/23 00:46:26;;;;;;;1.38;0.90;;;4.40;67.50;;;6.98;56.57;102846.63;5001966;28;97654;-66
2021/04/23 00:48:56;;;;;;;0.80;0.80;;;4.40;67.50;;;6.92;55.95;102845.66;5007680;28;97612;-66
2021/04/23 00:51:33;;;;;;;1.55;0.73;;;4.40;67.60;;;6.85;56.08;102839.63;5005976;28;97921;-66
2021/04/23 00:54:04;;;;;;;0.47;0.47;;;4.30;67.50;;;6.80;56.36;102841.31;5007623;28;96808;-66
2021/04/23 00:56:37;;;;;;;2.22;0.70;;;4.30;67.60;;;6.69;56.14;102839.44;5006973;28;96922;-66
2021/04/23 00:59:09;;;;;;;0.85;0.85;;;4.30;67.60;;;6.72;55.98;102845.09;5005287;28;97342;-66
2021/04/23 01:01:42;;;;;;;37.88;0.77;;;4.20;67.60;;;6.74;56.34;102839.56;5002886;28;97768;-66
2021/04/23 01:04:12;;;;;;;0.57;0.57;;;4.20;67.60;;;6.75;55.98;102844.66;5008572;28;96939;-67
2021/04/23 01:06:41;;;;;;;3.60;1.05;;;4.20;67.70;;;6.71;55.82;102848.81;5007248;28;97124;-66
2021/04/23 01:09:15;;;;;;;0.38;0.38;;;4.20;67.70;;;6.66;56.25;102842.56;5004552;28;98019;-67
2021/04/23 01:11:45;;;;;;;1.02;0.93;;;4.10;67.70;;;6.65;56.03;102843.59;5005969;28;97855;-66
2021/04/23 01:14:13;;;;;;;0.40;0.40;;;4.10;67.70;;;6.63;55.98;102848.34;5008547;28;97316;-66
2021/04/23 01:16:41;;;;;;;1.38;1.27;;;4.10;67.70;;;6.55;56.66;102843.28;5003233;28;97225;-67
2021/04/23 01:19:14;;;;;;;4.18;1.08;;;4.00;67.70;;;6.62;56.21;102852.03;4998049;28;98057;-67
2021/04/23 01:21:43;;;;;;;0.70;0.70;;;4.00;67.80;;;6.61;56.04;102847.75;5004834;28;98378;-67
2021/04/23 01:24:13;;;;;;;0.20;0.20;;;4.00;67.80;;;6.55;56.05;102843.28;4999269;28;96763;-66
2021/04/23 01:26:44;;;;;;;0.47;0.47;;;4.00;67.70;;;6.47;56.40;102843.59;5004999;28;97280;-67
2021/04/23 01:29:17;;;;;;;0.75;0.75;;;4.00;67.80;;;6.47;56.49;102843.59;5000219;28;98235;-68
2021/04/23 01:31:54;;;;;;;6.47;2.75;;;4.00;67.80;;;6.44;55.55;102844.06;5001142;28;97700;-66
2021/04/23 01:34:31;;;;;;;0.38;0.38;;;3.90;67.80;;;6.44;56.09;102850.16;5000886;28;96914;-66
2021/04/23 01:37:03;;;;;;;0.30;0.30;;;3.90;67.90;;;6.49;55.97;102854.84;5006925;28;97204;-66
2021/04/23 01:39:36;;;;;;;3.40;0.90;;;3.90;67.90;;;6.42;56.27;102854.09;5002189;28;98165;-66
2021/04/23 01:42:11;;;;;;;0.40;0.40;;;3.90;67.80;;;6.43;56.36;102855.72;4997547;28;97821;-66
2021/04/23 01:44:40;;;;;;;7.55;1.15;;;3.90;67.80;;;6.35;56.39;102853.38;5004812;28;97081;-66
2021/04/23 01:47:10;;;;;;;1.23;1.08;;;3.80;67.70;;;6.33;55.89;102855.44;4998783;28;96896;-66
2021/04/23 01:49:38;;;;;;;0.17;0.17;;;3.80;67.80;;;6.30;56.40;102850.53;5000621;28;98027;-66
2021/04/23 01:52:17;;;;;;;0.80;0.77;;;3.80;67.80;;;6.25;56.61;102853.06;5007835;28;97076;-66
2021/04/23 01:54:46;;;;;;;0.25;0.25;;;3.80;67.80;;;6.25;56.14;102853.06;5007881;28;96772;-66
2021/04/23 01:57:14;;;;;;;7.28;1.10;;;3.70;67.80;;;6.24;56.20;102856.75;4990460;28;97034;-66
2021/04/23 01:59:45;;;;;;;41.67;1.55;;;3.70;67.90;;;6.24;56.50;102862.09;5006947;28;100885;-66
2021/04/23 02:02:13;;;;;;;0.30;0.30;;;3.70;68.00;;;6.35;56.16;102858.72;5005593;28;96827;-67
2021/04/23 02:04:45;;;;;;;0.73;0.73;;;3.70;68.10;;;6.53;55.36;102869.31;5002688;28;98994;-67
2021/04/23 02:07:21;;;;;;;0.20;0.20;;;3.80;68.30;;;6.68;55.44;102873.25;5009407;28;97360;-66
2021/04/23 02:09:49;;;;;;;0.40;0.40;;;3.90;68.40;;;6.82;55.66;102866.72;5004245;28;98120;-66
2021/04/23 02:12:18;;;;;;;0.15;0.15;;;4.00;68.30;;;6.96;55.37;102878.03;4978602;28;97741;-66
2021/04/23 02:14:45;;;;;;;0.10;0.10;;;4.00;68.20;;;7.06;55.32;102875.63;5007442;28;97370;-66
2021/04/23 02:17:14;;;;;;;1.38;0.82;;;4.10;68.20;;;7.12;55.79;102877.38;5005144;28;97758;-66
2021/04/23 02:19:41;;;;;;;1.33;0.50;;;4.20;68.10;;;7.18;54.96;102885.28;5007806;28;97907;-66
2021/04/23 02:22:09;;;;;;;0.20;0.20;;;4.30;68.10;;;7.24;54.56;102886.25;5004711;28;98038;-66
2021/04/23 02:24:38;;;;;;;0.60;0.47;;;4.40;68.00;;;7.32;55.56;102883.25;5005368;28;96976;-66
2021/04/23 02:27:06;;;;;;;0.40;0.40;;;4.40;67.90;;;7.35;55.18;102888.91;5003246;28;97637;-67
2021/04/23 02:29:34;;;;;;;11.50;1.55;;;4.50;67.90;;;7.42;55.12;102883.50;4996300;28;97878;-67
2021/04/23 02:32:05;;;;;;;0.20;0.20;;;4.50;67.90;;;7.49;54.43;102885.03;5001387;28;97820;-66
2021/04/23 02:34:34;;;;;;;0.40;0.40;;;4.60;67.90;;;7.48;54.84;102890.56;5010568;28;97930;-67
2021/04/23 02:37:01;;;;;;;0.30;0.30;;;4.60;68.00;;;7.51;55.39;102892.81;5006910;28;97299;-66
2021/04/23 02:39:29;;;;;;;1.83;1.20;;;4.70;68.00;;;7.65;54.87;102897.69;5006054;28;96973;-66
2021/04/23 02:41:58;;;;;;;0.73;0.73;;;4.70;67.90;;;7.81;54.54;102884.50;5006067;28;98252;-67
2021/04/23 02:44:30;;;;;;;0.20;0.20;;;4.80;68.00;;;7.83;54.97;102890.41;5004269;28;97422;-66
2021/04/23 02:46:59;;;;;;;0.50;0.50;;;4.80;67.90;;;7.90;54.50;102892.94;5003055;28;96887;-66
2021/04/23 02:49:29;;;;;;;1.08;1.05;;;4.90;67.90;;;8.01;54.11;102882.28;5001233;28;97902;-67
2021/04/23 02:51:57;;;;;;;8.80;1.35;;;5.00;67.90;;;7.93;54.16;102895.97;5005849;28;96788;-66
2021/04/23 02:54:26;;;;;;;1.40;0.98;;;5.00;67.90;;;7.92;54.87;102894.34;5004910;28;97278;-66
2021/04/23 02:56:55;;;;;;;0.90;0.90;;;5.00;67.80;;;7.86;55.86;102889.94;5002909;28;96813;-66
2021/04/23 02:59:23;;;;;;;0.52;0.52;;;5.00;67.80;;;7.90;54.83;102888.44;5001794;28;96739;-66
2021/04/23 03:01:56;;;;;;;9.35;1.30;;;5.00;67.80;;;7.88;54.73;102889.72;4999861;28;97696;-68
2021/04/23 03:04:26;;;;;;;0.40;0.40;;;5.00;67.80;;;7.85;55.13;102885.66;5000951;28;96887;-67
2021/04/23 03:06:54;;;;;;;0.82;0.80;;;5.10;67.90;;;7.89;54.73;102886.00;4997879;28;98674;-66
2021/04/23 03:09:22;;;;;;;0.80;0.65;;;5.00;67.90;;;7.89;55.31;102888.66;4999944;28;97062;-66
2021/04/23 03:11:51;;;;;;;0.47;0.47;;;5.00;67.90;;;7.86;54.77;102886.47;5001575;28;96991;-66
2021/04/23 03:14:18;;;;;;;1.48;1.38;;;5.00;67.90;;;7.88;55.38;102898.53;5007120;28;96893;-67
2021/04/23 03:16:47;;;;;;;0.25;0.25;;;5.10;68.10;;;7.96;54.69;102894.72;5003151;28;96884;-67
2021/04/23 03:19:18;;;;;;;25.08;4.50;;;5.10;68.10;;;8.03;55.68;102896.22;4996772;28;98845;-67
2021/04/23 03:21:49;;;;;;;0.95;0.73;;;5.10;68.20;;;8.12;55.21;102891.34;5007066;28;97724;-67
2021/04/23 03:24:19;;;;;;;0.30;0.30;;;5.10;68.20;;;8.14;55.35;102899.94;5005244;28;97302;-66
2021/04/23 03:26:47;;;;;;;0.43;0.43;;;5.20;68.30;;;8.26;54.40;102895.44;5004130;28;97309;-66
2021/04/23 03:29:17;;;;;;;0.50;0.50;;;5.20;68.20;;;8.31;54.66;102896.34;5004082;28;98241;-66
2021/04/23 03:31:46;;;;;;;1.23;1.13;;;5.20;68.30;;;8.34;54.85;102898.53;5000261;28;98451;-66
2021/04/23 03:34:14;;;;;;;0.17;0.17;;;5.30;68.20;;;8.39;54.23;102895.97;5003594;28;97340;-66
2021/04/23 03:36:42;;;;;;;0.85;0.35;;;5.30;68.20;;;8.44;54.88;102904.13;4991133;28;98031;-66
2021/04/23 03:39:12;;;;;;;0.85;0.65;;;5.30;68.30;;;8.38;54.96;102904.25;5007590;28;98312;-66
2021/04/23 03:41:41;;;;;;;0.43;0.43;;;5.40;68.30;;;8.40;54.93;102904.81;5004710;28;96849;-66
2021/04/23 03:44:11;;;;;;;0.57;0.57;;;5.40;68.30;;;8.42;54.82;102900.88;5004717;28;96952;-67
2021/04/23 03:46:38;;;;;;;0.40;0.40;;;5.40;68.40;;;8.45;55.00;102907.59;4998772;28;97233;-67
2021/04/23 03:49:13;;;;;;;0.75;0.75;;;5.40;68.30;;;8.43;54.56;102904.34;5007046;28;97997;-66
2021/04/23 03:51:41;;;;;;;0.10;0.10;;;5.40;68.30;;;8.44;54.83;102901.44;5019424;28;97672;-66
2021/04/23 03:54:09;;;;;;;0.50;0.50;;;5.50;68.40;;;8.46;54.76;102909.22;5004653;28;96831;-68
2021/04/23 03:56:38;;;;;;;0.20;0.20;;;5.40;68.30;;;8.48;54.48;102907.94;5004717;28;97349;-66
2021/04/23 03:59:05;;;;;;;3.72;1.85;;;5.50;68.40;;;8.45;54.86;102903.06;5007666;28;98299;-66
2021/04/23 04:01:34;;;;;;;0.57;0.57;;;5.50;68.40;;;8.51;54.85;102909.31;5004306;28;97330;-66
2021/04/23 04:04:06;;;;;;;1.85;0.93;;;5.50;68.40;;;8.46;54.90;102912.72;5004467;28;97447;-66
2021/04/23 04:06:34;;;;;;;0.20;0.20;;;5.50;68.40;;;8.50;55.36;102916.53;5007573;28;97586;-66
2021/04/23 04:09:06;;;;;;;7.22;1.10;;;5.50;68.40;;;8.61;54.70;102915.69;5003842;28;97857;-66
2021/04/23 04:11:35;;;;;;;0.20;0.20;;;5.60;68.40;;;8.66;54.99;102915.00;5005661;28;98792;-66
2021/04/23 04:14:05;;;;;;;0.30;0.30;;;5.60;68.40;;;8.63;54.93;102910.94;5002531;28;96774;-66
2021/04/23 04:16:33;;;;;;;0.00;0.00;;;5.60;68.40;;;8.61;54.72;102917.56;5023717;28;96895;-66
2021/04/23 04:19:04;;;;;;;1.35;0.82;;;5.60;68.30;;;8.61;55.04;102917.56;5003952;28;99024;-66
2021/04/23 04:21:32;;;;;;;0.17;0.17;;;5.60;68.40;;;8.58;54.74;102918.03;4998972;28;97499;-67
2021/04/23 04:24:03;;;;;;;1.13;0.93;;;5.70;68.40;;;8.60;54.81;102919.41;5003431;28;97278;-66
2021/04/23 04:26:30;;;;;;;2.65;0.38;;;5.60;68.40;;;8.65;55.47;102922.19;5006761;28;96928;-67
2021/04/23 04:28:58;;;;;;;1.48;1.00;;;5.70;68.40;;;8.71;55.15;102912.44;5008288;28;97874;-66
2021/04/23 04:31:27;;;;;;;0.20;0.20;;;5.70;68.50;;;8.71;54.84;102918.59;5005521;28;96861;-67
2021/04/23 04:33:55;;;;;;;0.20;0.20;;;5.70;68.40;;;8.74;55.30;102926.16;5007502;28;96815;-66
2021/04/23 04:36:23;;;;;;;0.13;0.13;;;5.70;68.40;;;8.83;54.96;102931.91;5006445;28;97303;-66
2021/04/23 04:38:51;;;;;;;0.10;0.10;;;5.80;68.40;;;8.85;54.62;102935.97;5005139;28;97913;-67
2021/04/23 04:41:19;;;;;;;0.28;0.28;;;5.80;68.40;;;8.86;54.70;102932.25;5006109;28;97317;-66
2021/04/23 04:43:48;;;;;;;2.85;1.08;;;5.80;68.40;;;8.86;55.39;102940.28;5004020;28;97153;-66
2021/04/23 04:46:15;;;;;;;3.50;0.57;;;5.80;68.40;;;8.89;55.03;102945.16;5000779;28;97029;-66
2021/04/23 04:48:43;;;;;;;0.10;0.10;;;5.80;68.40;;;8.95;54.93;102944.19;5000466;28;98464;-66
2021/04/23 04:51:12;;;;;;;0.82;0.82;;;5.90;68.50;;;8.96;54.96;102951.16;4981839;28;96940;-66
2021/04/23 04:53:39;;;;;;;0.20;0.20;;;5.90;68.50;;;8.98;54.63;102946.38;5003031;28;97716;-66
2021/04/23 04:56:07;;;;;;;0.85;0.68;;;5.90;68.50;;;9.01;55.08;102956.63;5008327;28;97495;-67
2021/04/23 04:58:39;;;;;;;0.40;0.40;;;6.00;68.50;;;9.02;55.32;102952.91;5002329;28;98176;-67
2021/04/23 05:01:08;;;;;;;0.38;0.20;;;6.00;68.50;;;9.08;55.18;102951.97;5002854;28;97740;-66
2021/04/23 05:03:38;;;;;;;0.20;0.20;;;6.00;68.50;;;9.11;55.27;102951.47;5004203;28;96762;-66
2021/04/23 05:06:08;;;;;;;0.88;0.88;;;6.10;68.50;;;9.19;54.53;102956.44;5008839;28;96938;-66
2021/04/23 05:08:36;;;;;;;0.20;0.20;;;6.10;68.40;;;9.29;55.14;102956.63;5009169;28;98759;-66
2021/04/23 05:11:05;;;;;;;0.68;0.68;;;6.20;68.40;;;9.38;54.71;102952.53;5008301;28;98154;-67
2021/04/23 05:13:33;;;;;;;3.30;2.17;;;6.20;68.30;;;9.49;53.99;102963.19;5001028;28;97200;-66
2021/04/23 05:16:03;;;;;;;0.00;0.00;;;6.30;68.30;;;9.57;54.15;102968.16;5007261;28;97233;-66
2021/04/23 05:18:31;;;;;;;0.43;0.43;;;6.30;68.20;;;9.65;54.30;102966.94;5003845;28;102934;-67
2021/04/23 05:20:58;;;;;;;0.10;0.10;;;6.40;68.20;;;9.74;54.10;102968.97;5002960;28;98879;-66
2021/04/23 05:23:27;;;;;;;2.67;1.10;;;6.40;68.10;;;9.93;53.78;102967.69;4999360;28;97191;-66
2021/04/23 05:25:54;;;;;;;0.43;0.43;;;6.60;68.70;;;10.13;53.51;102970.75;5003366;28;97017;-67
2021/04/23 05:28:22;;;;;;;22.80;0.52;;;6.70;67.90;;;10.24;53.50;102969.81;5004231;28;96843;-66
2021/04/23 05:30:50;;;;;;;0.32;0.32;;;6.80;67.80;;;10.32;53.43;102974.75;5005306;28;98151;-67
2021/04/23 05:33:19;;;;;;;0.25;0.25;;;6.90;67.60;;;10.48;53.20;102973.94;5005550;28;96903;-66
2021/04/23 05:35:47;;;;;;;0.10;0.10;;;7.10;67.60;;;10.67;53.13;102971.78;4995501;28;97277;-67
2021/04/23 05:38:15;;;;;;;0.15;0.15;;;7.20;67.40;;;10.87;52.65;102975.53;5003111;28;96933;-66
2021/04/23 05:40:47;;;;;;;1.05;0.65;;;7.40;67.20;;;11.02;52.87;102981.91;5006809;28;96812;-67
2021/04/23 05:43:18;;;;;;;0.60;0.60;;;7.50;67.10;;;11.15;52.62;102989.59;5003276;28;96999;-66
2021/04/23 05:45:49;;;;;;;0.10;0.10;;;7.70;67.00;;;11.24;52.52;102988.09;5007805;28;96807;-67
2021/04/23 05:48:19;;;;;;;0.15;0.15;;;7.80;66.80;;;11.29;52.82;102988.13;5004534;28;97985;-67
2021/04/23 05:50:48;;;;;;;0.32;0.32;;;7.90;66.70;;;11.53;52.34;102996.69;5004427;28;102692;-66
2021/04/23 05:53:17;;;;;;;0.22;0.22;;;8.10;66.70;;;11.78;51.86;102995.13;5004149;28;97792;-66
2021/04/23 05:55:47;;;;;;;0.13;0.10;;;8.20;66.60;;;12.06;52.04;102994.00;5007184;28;97019;-67
2021/04/23 05:58:15;;;;;;;0.10;0.10;;;8.40;66.50;;;12.53;50.91;102999.22;5001060;28;97431;-67
2021/04/23 06:00:43;;;;;;;0.65;0.43;;;8.70;66.30;;;12.93;50.73;102995.97;5001157;28;97693;-67
2021/04/23 06:03:12;;;;;;;0.38;0.22;;;9.00;66.20;;;13.35;50.35;102991.28;4983370;28;96883;-67
2021/04/23 06:05:41;;;;;;;0.28;0.28;;;9.30;65.90;;;13.91;49.81;102990.31;5007946;28;97018;-67
2021/04/23 06:08:13;;;;;;;0.52;0.52;;;9.70;65.60;;;14.58;49.45;103000.50;5001543;28;97798;-67
2021/04/23 06:10:47;;;;;;;26.77;0.43;;;10.40;65.30;;;15.79;48.07;102991.59;4998483;28;96846;-68
2021/04/23 06:13:16;;;;;;;0.63;0.63;;;11.00;64.90;;;15.69;47.92;102980.84;5002879;28;97661;-67
2021/04/23 06:15:45;;;;;;;0.22;0.22;;;11.30;64.50;;;16.31;47.72;102988.19;5001743;28;96921;-68
2021/04/23 06:18:14;;;;;;;2.83;1.38;;;11.80;64.40;;;16.05;48.91;102982.19;5003464;28;99347;-67
2021/04/23 06:20:45;;;;;;;5.25;0.50;;;12.00;64.30;;;15.80;49.63;102987.81;5002568;28;97687;-68
2021/04/23 06:23:17;;;;;;;0.60;0.60;;;12.10;64.30;;;15.80;49.89;102993.22;5004284;28;96813;-67
2021/04/23 06:25:45;;;;;;;0.95;0.88;;;12.20;64.50;;;15.89;50.27;102993.41;5000559;28;96980;-67
2021/04/23 06:28:13;;;;;;;0.55;0.55;;;12.30;64.50;;;16.23;50.15;102997.72;5013498;28;98226;-67
2021/04/23 06:30:41;;;;;;;0.10;0.10;;;12.50;64.50;;;17.40;48.29;102992.34;4998215;28;99770;-67
2021/04/23 06:33:15;;;;;;;0.40;0.40;;;12.90;64.20;;;17.91;47.91;102990.50;5002907;28;96895;-67
2021/04/23 06:35:45;;;;;;;1.00;0.40;;;13.30;63.70;;;18.03;48.22;102999.00;5002137;28;97060;-68
2021/04/23 06:38:13;;;;;;;1.95;0.65;;;13.60;63.60;;;17.90;48.40;102997.00;5003245;28;97215;-67
2021/04/23 06:40:41;;;;;;;0.43;0.43;;;13.70;63.70;;;18.09;48.90;102997.78;5004171;28;97890;-68
2021/04/23 06:43:10;;;;;;;1.13;0.80;;;13.90;64.00;;;18.97;47.09;103004.56;5008993;28;97209;-67
2021/04/23 06:45:39;;;;;;;6.43;0.85;;;14.20;63.80;;;21.97;41.78;103010.22;5004938;28;96894;-68
2021/04/23 06:48:13;;;;;;;0.20;0.20;;;15.30;62.90;;;25.88;37.14;103003.63;5004370;28;97187;-68
2021/04/23 06:50:43;;;;;;;0.75;0.45;;;16.90;62.00;;;29.17;34.09;103002.13;4993076;28;97231;-68
2021/04/23 06:53:11;;;;;;;1.00;0.57;;;19.00;60.50;;;30.82;33.47;103004.78;5001679;28;96868;-69
2021/04/23 06:55:39;;;;;;;1.55;0.30;;;20.90;59.50;;;30.55;35.67;102997.81;5007686;28;96939;-66
2021/04/23 06:58:07;;;;;;;2.20;0.98;;;21.90;59.20;;;30.44;37.08;103007.19;5003332;28;97504;-66
2021/04/23 07:00:38;;;;;;;0.65;0.55;;;22.70;58.90;;;33.85;33.37;102998.00;5004470;28;96787;-66
2021/04/23 07:03:10;;;;;;;0.73;0.45;;;24.00;58.60;;;33.09;35.73;102992.31;5006697;28;97308;-66
2021/04/23 07:05:42;;;;;;;0.77;0.75;;;24.80;58.50;;;35.20;33.51;102996.13;5005642;28;96662;-67
2021/04/23 07:08:11;;;;;;;1.10;0.43;;;25.80;58.30;;;36.71;32.82;102995.50;5001101;28;97875;-66
2021/04/23 07:10:40;;;;;;;5.93;0.82;;;26.90;57.80;;;37.84;32.45;102992.81;4996101;28;96867;-67
2021/04/23 07:13:08;;;;;;;1.33;0.43;;;28.00;57.50;;;38.71;31.49;102994.66;5002003;28;97294;-67
2021/04/23 07:15:37;;;;;;;0.20;0.20;;;29.00;57.20;;;39.85;31.14;102984.94;5004414;28;96935;-67
2021/04/23 07:18:06;;;;;;;0.82;0.30;;;29.80;57.20;;;40.34;31.16;102985.34;5008997;28;96810;-67
2021/04/23 07:20:40;;;;;;;5.53;0.65;;;30.80;56.70;;;37.16;36.00;102981.88;5004047;28;97679;-67
2021/04/23 07:23:10;;;;;;;1.08;0.80;;;30.80;56.20;;;38.35;34.54;102983.59;4991546;28;97094;-67
2021/04/23 07:25:39;;;;;;;0.85;0.45;;;30.80;56.30;;;35.86;38.20;102988.88;5002904;28;96893;-67
2021/04/23 07:28:08;;;;;;;3.15;0.63;;;30.40;56.20;;;33.37;42.16;102986.69;5003073;28;98453;-66
2021/04/23 07:30:39;;;;;;;3.60;1.02;;;29.40;56.70;;;30.91;46.04;102983.84;5004905;28;98178;-66
2021/04/23 07:33:11;;;;;;;3.70;0.90;;;28.40;57.70;;;28.54;50.20;102986.53;5009607;28;97124;-66
2021/04/23 07:35:41;;;;;;;0.67;0.30;;;26.90;59.10;;;28.70;48.82;102986.38;5006953;28;102311;-66
2021/04/23 07:38:10;;;;;;;0.57;0.57;;;25.60;60.30;;;26.78;52.41;102988.72;5006853;28;96767;-66
2021/04/23 07:40:38;;;;;;;1.15;0.77;;;24.90;61.50;;;28.60;47.44;102987.81;5012760;28;96841;-66
2021/04/23 07:43:06;;;;;;;0.30;0.30;;;24.30;62.10;;;26.38;51.39;103004.59;4994734;28;97112;-66
2021/04/23 07:45:54;;;;;;;0.82;0.50;;;23.80;62.00;;;26.19;51.28;102996.22;5011880;28;97025;-65
2021/04/23 07:48:22;;;;;;;3.35;0.88;;;22.90;63.00;;;28.75;45.55;102989.59;5004709;28;96919;-65
2021/04/23 07:50:50;;;;;;;0.20;0.20;;;22.80;63.60;;;26.19;50.63;102998.19;5004938;28;97601;-66
2021/04/23 07:53:20;;;;;;;4.68;1.02;;;22.60;63.70;;;25.11;52.44;102995.75;5011849;28;96895;-65
2021/04/23 07:55:47;;;;;;;6.38;0.38;;;22.10;63.90;;;32.30;37.58;103005.06;5009223;28;97080;-66
2021/04/23 07:58:15;;;;;;;11.20;1.85;;;22.40;63.90;;;33.69;36.20;102992.16;5007306;28;98577;-66
2021/04/23 08:00:46;;;;;;;1.15;0.85;;;23.80;62.70;;;28.46;46.79;102998.59;5007227;28;97659;-66
2021/04/23 08:03:15;;;;;;;0.40;0.40;;;23.90;62.60;;;25.66;51.73;103002.16;5024864;28;98458;-66
2021/04/23 08:05:42;;;;;;;4.20;0.30;;;23.10;62.90;;;23.77;55.68;103009.88;5002927;28;97319;-66
2021/04/23 08:08:11;;;;;;;18.38;1.05;;;22.20;63.40;;;22.86;56.36;103003.56;5008461;28;97915;-68
2021/04/23 08:10:39;;;;;;;1.65;0.70;;;21.30;63.80;;;21.93;57.46;102995.63;4993730;28;97050;-65
2021/04/23 08:13:07;;;;;;;1.40;0.75;;;20.50;64.40;;;21.20;58.91;103003.94;5003568;28;96747;-65
2021/04/23 08:15:36;;;;;;;0.30;0.30;;;19.70;65.00;;;20.32;59.08;103000.66;5006763;28;96847;-67
2021/04/23 08:18:06;;;;;;;0.22;0.22;;;19.00;65.50;;;19.45;60.42;103015.81;5005975;28;97969;-65
2021/04/23 08:20:35;;;;;;;7.28;0.60;;;18.30;65.80;;;18.93;60.57;103016.38;5011919;28;98151;-68
2021/04/23 08:23:06;;;;;;;1.85;1.10;;;17.60;66.30;;;18.67;60.22;103014.41;5005536;28;96763;-67
2021/04/23 08:25:34;;;;;;;1.95;0.35;;;17.00;66.50;;;18.83;58.89;103016.53;5005913;28;97478;-68
2021/04/23 08:28:06;;;;;;;1.45;0.88;;;16.70;66.80;;;19.68;56.02;103018.28;5007395;28;98841;-68
2021/04/23 08:30:35;;;;;;;0.45;0.45;;;16.50;67.20;;;19.53;56.14;103009.66;5006672;28;97783;-67
2021/04/23 08:33:06;;;;;;;1.65;0.30;;;16.40;67.20;;;21.06;52.39;103012.22;5004759;28;96908;-68
2021/04/23 08:35:34;;;;;;;0.45;0.45;;;16.20;67.40;;;23.95;45.79;103018.41;4992746;28;96912;-68
2021/04/23 08:38:04;;;;;;;0.50;0.47;;;16.40;68.40;;;29.37;36.14;103009.09;5004987;28;99660;-68
2021/04/23 08:40:32;;;;;;;1.63;0.65;;;17.50;68.30;;;31.23;34.35;103006.25;5009281;28;97312;-68
2021/04/23 08:43:00;;;;;;;2.10;0.43;;;18.80;67.70;;;33.10;32.92;103004.25;5002455;28;97531;-68
2021/04/23 08:45:32;;;;;;;0.82;0.55;;;20.20;67.30;;;34.45;32.67;103002.78;5002169;28;97019;-67
2021/04/23 08:48:03;;;;;;;0.40;0.32;;;21.60;66.50;;;35.40;32.41;102999.06;5001551;28;96932;-66
2021/04/23 08:50:31;;;;;;;0.40;0.38;;;22.90;66.00;;;36.45;32.32;103001.91;5004735;28;98664;-66
2021/04/23 08:53:00;;;;;;;0.88;0.28;;;24.00;65.30;;;33.98;37.01;102996.34;5009432;28;97141;-66
2021/04/23 08:55:32;;;;;;;0.60;0.55;;;24.80;64.30;;;29.01;47.27;103003.44;5003705;28;96746;-68
2021/04/23 08:58:12;;;;;;;0.50;0.50;;;24.70;63.40;;;26.57;52.22;103004.72;5003124;28;98353;-66
2021/04/23 09:00:42;;;;;;;0.60;0.55;;;24.00;63.40;;;24.97;54.71;103013.72;5006014;28;98268;-66
2021/04/23 09:03:12;;;;;;;0.73;0.52;;;23.10;63.40;;;28.37;45.94;103011.84;5005421;28;97413;-69
2021/04/23 09:05:41;;;;;;;0.10;0.10;;;22.70;64.40;;;32.15;38.60;103014.53;5008379;28;96996;-68
2021/04/23 09:08:13;;;;;;;5.13;1.88;;;22.80;64.90;;;29.74;43.81;102998.94;4998758;28;98324;-68
2021/04/23 09:10:41;;;;;;;6.10;0.60;;;23.10;65.00;;;26.48;51.27;103004.09;5004637;28;97894;-68
2021/04/23 09:13:12;;;;;;;0.52;0.43;;;22.90;65.30;;;24.86;53.68;103010.63;5002779;28;97573;-67
2021/04/23 09:15:44;;;;;;;0.30;0.30;;;22.40;64.50;;;23.96;55.05;103011.03;5007744;28;96967;-68
2021/04/23 09:18:15;;;;;;;0.00;0.00;;;21.90;64.30;;;26.04;49.38;103013.50;5002285;28;97150;-67
2021/04/23 09:20:46;;;;;;;0.98;0.40;;;21.40;64.50;;;28.21;44.35;103010.34;5005541;28;98012;-68
2021/04/23 09:23:19;;;;;;;0.63;0.57;;;21.50;65.40;;;25.28;50.67;103014.75;5010373;28;98634;-68
2021/04/23 09:25:51;;;;;;;1.25;0.90;;;21.50;65.10;;;23.93;53.45;103020.69;5007217;28;96979;-67
2021/04/23 09:28:36;;;;;;;0.30;0.30;;;21.20;65.10;;;22.99;54.42;103025.22;4988797;28;97960;-67
2021/04/23 09:31:29;;;;;;;5.15;1.08;;;20.70;64.20;;;21.82;56.39;103025.16;5000804;28;98527;-67
2021/04/23 09:34:05;;;;;;;0.20;0.20;;;20.00;64.10;;;23.46;52.53;103023.19;4996102;28;97079;-67
2021/04/23 09:36:37;;;;;;;0.00;0.00;;;19.50;65.20;;;26.05;46.23;103015.09;5006652;28;97545;-67
2021/04/23 09:39:12;;;;;;;0.20;0.20;;;19.80;66.20;;;26.61;46.02;103007.56;5008440;28;97899;-67
2021/04/23 09:41:45;;;;;;;0.10;0.10;;;20.30;66.20;;;24.77;50.44;103015.44;5005086;28;97629;-67
2021/04/23 09:44:34;;;;;;;0.57;0.20;;;20.70;65.50;;;23.50;52.90;103019.41;4990848;28;97235;-67
2021/04/23 09:47:13;;;;;;;1.30;0.75;;;20.50;64.50;;;22.61;54.11;103024.41;5003808;28;98252;-68
2021/04/23 09:49:43;;;;;;;0.17;0.17;;;20.20;64.40;;;21.95;55.04;103012.47;4999672;28;97170;-68
2021/04/23 09:52:15;;;;;;;0.20;0.20;;;19.80;64.20;;;21.49;55.58;103012.31;4995316;28;97689;-68
2021/04/23 09:54:49;;;;;;;4.63;1.27;;;19.40;64.00;;;20.80;55.65;103016.75;4984989;28;97684;-68
2021/04/23 09:57:22;;;;;;;1.65;0.80;;;18.90;63.90;;;20.83;55.43;103018.06;5007578;28;97100;-68
2021/04/23 09:59:54;;;;;;;0.10;0.10;;;18.40;64.50;;;22.15;52.99;103011.81;5010116;28;97140;-69
2021/04/23 10:02:26;;;;;;;0.40;0.37;;;18.40;66.30;;;23.20;51.29;103022.53;5005197;28;97993;-67
2021/04/23 10:04:56;;;;;;;0.60;0.50;;;18.90;66.10;;;24.09;50.57;103015.38;5002849;28;97432;-68
2021/04/23 10:07:26;;;;;;;1.08;0.30;;;19.70;66.20;;;24.77;50.34;103009.13;5009754;28;96968;-68
2021/04/23 10:10:08;;;;;;;1.40;1.02;;;20.50;65.40;;;24.41;51.07;103015.38;5001533;28;98264;-68
2021/04/23 10:12:44;;;;;;;0.82;0.63;;;21.00;64.10;;;23.90;52.02;103023.31;5000993;28;96830;-68
2021/04/23 10:15:20;;;;;;;6.20;1.52;;;21.00;63.20;;;23.36;51.99;103018.09;5007372;28;97026;-68
2021/04/23 10:17:52;;;;;;;0.60;0.32;;;20.70;62.60;;;23.27;51.67;103014.59;5009117;28;97007;-68
2021/04/23 10:20:24;;;;;;;0.40;0.40;;;20.50;63.20;;;23.64;51.03;103014.50;5004362;28;98958;-67
2021/04/23 10:22:54;;;;;;;1.60;0.57;;;20.40;62.70;;;23.59;51.26;103027.56;4999519;28;96916;-69
2021/04/23 10:25:24;;;;;;;1.35;0.47;;;20.30;63.10;;;23.34;51.42;103023.91;5005992;28;96811;-68
2021/04/23 10:27:55;;;;;;;14.43;1.67;;;20.20;62.90;;;22.74;52.40;103017.13;5004964;28;97087;-68
2021/04/23 10:30:27;;;;;;;1.58;1.48;;;19.90;63.00;;;22.20;52.50;103012.44;5001687;28;98030;-68
2021/04/23 10:33:14;;;;;;;0.50;0.50;;;19.60;63.10;;;21.71;53.56;103015.72;4999255;28;97285;-69